Time;durP1;ratioP1;P1;durP2;ratioP2;P2;SDS_P1;SDS_P2;PMS_P1;PMS_P2;Temp;Humidity;BMP_temperature;BMP_pressure;BME280_temperature;BME280_humidity;BME280_pressure;Samples;Min_cycle;Max_cycle;Signal;HPM_P1;HPM_P2
2022/08/25 00:00:00;;;;;;;;;;;21.40;77.50;;;;;;5057556;28;19970;-79
2022/08/25 00:02:28;;;;;;;;;;;21.40;77.50;;;;;;5054482;28;19928;-78
2022/08/25 00:04:55;;;;;;;;;;;21.40;77.30;;;;;;5051100;28;19932;-84
2022/08/25 00:07:22;;;;;;;;;;;21.40;77.20;;;;;;5058659;28;19967;-83
2022/08/25 00:09:49;;;;;;;;;;;21.30;77.50;;;;;;5057647;28;19971;-88
2022/08/25 00:12:17;;;;;;;;;;;21.30;78.10;;;;;;5053243;28;19968;-83
2022/08/25 00:14:43;;;;;;;;;;;21.30;78.30;;;;;;5042923;28;19925;-88
2022/08/25 00:17:10;;;;;;;;;;;21.30;78.60;;;;;;5053989;28;19967;-78
2022/08/25 00:19:37;;;;;;;;;;;21.30;78.50;;;;;;5059618;28;20289;-79
2022/08/25 00:22:05;;;;;;;;;;;21.20;78.50;;;;;;5046432;28;19925;-83
2022/08/25 00:24:32;;;;;;;;;;;21.20;78.70;;;;;;5043261;28;20388;-82
2022/08/25 00:27:00;;;;;;;;;;;21.20;79.10;;;;;;5044900;28;19956;-83
2022/08/25 00:29:27;;;;;;;;;;;21.10;79.10;;;;;;5043390;28;19960;-88
2022/08/25 00:31:54;;;;;;;;;;;21.10;79.40;;;;;;5049884;28;20289;-83
2022/08/25 00:34:23;;;;;;;;;;;21.00;79.40;;;;;;5044588;28;19968;-79
2022/08/25 00:36:50;;;;;;;;;;;21.00;79.10;;;;;;5043115;28;20304;-82
2022/08/25 00:39:19;;;;;;;;;;;21.00;79.40;;;;;;5037881;28;20278;-88
2022/08/25 00:41:47;;;;;;;;;;;21.00;80.00;;;;;;5041056;28;19933;-83
2022/08/25 00:44:18;;;;;;;;;;;20.90;80.00;;;;;;5036866;28;20404;-79
2022/08/25 00:46:46;;;;;;;;;;;20.90;79.80;;;;;;5059418;28;20015;-83
2022/08/25 00:49:16;;;;;;;;;;;20.90;79.50;;;;;;5045891;28;20405;-88
2022/08/25 00:52:09;;;;;;;;;;;20.80;79.50;;;;;;5051499;28;19932;-87
2022/08/25 00:54:48;;;;;;;;;;;20.80;79.50;;;;;;5044494;28;19926;-89
2022/08/25 00:57:17;;;;;;;;;;;20.70;79.60;;;;;;5057028;28;20354;-84
2022/08/25 00:59:47;;;;;;;;;;;20.70;80.00;;;;;;5053533;28;19928;-80
2022/08/25 01:02:15;;;;;;;;;;;20.70;80.10;;;;;;5053754;28;19971;-83
2022/08/25 01:04:43;;;;;;;;;;;20.70;80.20;;;;;;5051367;28;19936;-78
2022/08/25 01:07:15;;;;;;;;;;;20.60;80.50;;;;;;5049270;28;19955;-89
2022/08/25 01:09:44;;;;;;;;;;;20.60;80.70;;;;;;5053579;28;19979;-83
2022/08/25 01:12:11;;;;;;;;;;;20.60;80.50;;;;;;5056246;28;19974;-79
2022/08/25 01:14:38;;;;;;;;;;;20.50;80.40;;;;;;5065633;28;19925;-89
2022/08/25 01:17:05;;;;;;;;;;;20.50;80.10;;;;;;5054827;28;19928;-89
2022/08/25 01:19:34;;;;;;;;;;;20.50;80.10;;;;;;5068110;28;19925;-83
2022/08/25 01:22:01;;;;;;;;;;;20.50;80.10;;;;;;5049737;28;19925;-79
2022/08/25 01:24:37;;;;;;;;;;;20.40;80.60;;;;;;5066925;28;20293;-88
2022/08/25 01:27:04;;;;;;;;;;;20.40;80.70;;;;;;5063487;28;19982;-83
2022/08/25 01:29:31;;;;;;;;;;;20.30;80.90;;;;;;5066816;28;19973;-83
2022/08/25 01:32:00;;;;;;;;;;;20.30;81.00;;;;;;5059765;28;19924;-79
2022/08/25 01:34:28;;;;;;;;;;;20.20;81.00;;;;;;5074798;28;20392;-82
2022/08/25 01:36:55;;;;;;;;;;;20.20;81.00;;;;;;5083363;28;20415;-78
2022/08/25 01:39:22;;;;;;;;;;;20.20;80.90;;;;;;5060826;28;19924;-88
2022/08/25 01:41:58;;;;;;;;;;;20.20;81.20;;;;;;5061033;28;19974;-84
2022/08/25 01:44:25;;;;;;;;;;;20.20;81.50;;;;;;5069439;28;19967;-79
2022/08/25 01:46:53;;;;;;;;;;;20.20;81.40;;;;;;5067934;28;19971;-78
2022/08/25 01:49:20;;;;;;;;;;;20.20;81.30;;;;;;5068644;28;19982;-82
2022/08/25 01:51:50;;;;;;;;;;;20.20;81.10;;;;;;5063732;28;20014;-83
2022/08/25 01:54:16;;;;;;;;;;;20.20;81.10;;;;;;5084186;28;19964;-83
2022/08/25 01:56:43;;;;;;;;;;;20.20;80.90;;;;;;5062196;28;19974;-79
2022/08/25 01:59:10;;;;;;;;;;;20.10;80.70;;;;;;5060682;28;20403;-84
2022/08/25 02:01:39;;;;;;;;;;;20.20;80.90;;;;;;5062864;28;19924;-84
2022/08/25 02:04:06;;;;;;;;;;;20.20;80.40;;;;;;5072939;28;19930;-79
2022/08/25 02:06:33;;;;;;;;;;;20.20;80.00;;;;;;5079616;28;19928;-82
2022/08/25 02:09:04;;;;;;;;;;;20.20;78.80;;;;;;5049987;28;20333;-78
2022/08/25 02:11:32;;;;;;;;;;;20.30;77.50;;;;;;5056893;28;20380;-78
2022/08/25 02:13:59;;;;;;;;;;;20.40;76.20;;;;;;5076689;28;19929;-84
2022/08/25 02:16:28;;;;;;;;;;;20.50;74.40;;;;;;5059822;28;19928;-84
2022/08/25 02:18:55;;;;;;;;;;;20.60;73.20;;;;;;5076790;28;19928;-82
2022/08/25 02:21:22;;;;;;;;;;;20.80;72.50;;;;;;5073064;28;20346;-86
2022/08/25 02:23:49;;;;;;;;;;;20.80;71.50;;;;;;5067207;28;19977;-83
2022/08/25 02:26:17;;;;;;;;;;;21.00;71.00;;;;;;5085235;28;19931;-78
2022/08/25 02:28:45;;;;;;;;;;;21.00;70.60;;;;;;5066740;28;19925;-84
2022/08/25 02:31:12;;;;;;;;;;;21.10;70.20;;;;;;5073419;28;19964;-86
2022/08/25 02:33:39;;;;;;;;;;;21.10;70.10;;;;;;5060147;28;19951;-80
2022/08/25 02:36:06;;;;;;;;;;;21.20;69.90;;;;;;5065849;28;20372;-82
2022/08/25 02:38:33;;;;;;;;;;;21.20;68.70;;;;;;5066204;28;20384;-82
2022/08/25 02:41:06;;;;;;;;;;;21.30;68.40;;;;;;5067876;28;20343;-79
2022/08/25 02:43:33;;;;;;;;;;;21.30;68.30;;;;;;5061647;28;19955;-79
2022/08/25 02:46:00;;;;;;;;;;;21.40;68.00;;;;;;5066369;28;19925;-79
2022/08/25 02:48:27;;;;;;;;;;;21.40;67.90;;;;;;5081871;28;19924;-84
2022/08/25 02:50:54;;;;;;;;;;;21.40;67.70;;;;;;5054614;28;19928;-88
2022/08/25 02:53:21;;;;;;;;;;;21.40;67.40;;;;;;5072267;28;20312;-84
2022/08/25 02:55:47;;;;;;;;;;;21.40;67.20;;;;;;5078493;28;20383;-83
2022/08/25 02:58:14;;;;;;;;;;;21.50;67.20;;;;;;5063672;28;19929;-79
2022/08/25 03:00:41;;;;;;;;;;;21.50;66.50;;;;;;5066159;28;19928;-82
2022/08/25 03:03:08;;;;;;;;;;;21.60;66.20;;;;;;5070073;28;19928;-79
2022/08/25 03:05:35;;;;;;;;;;;21.60;66.10;;;;;;5063453;28;19973;-88
2022/08/25 03:08:03;;;;;;;;;;;21.60;65.70;;;;;;5090701;28;20391;-84
2022/08/25 03:10:30;;;;;;;;;;;21.60;65.60;;;;;;5082374;28;20319;-84
2022/08/25 03:12:57;;;;;;;;;;;21.70;65.50;;;;;;5060982;28;20385;-85
2022/08/25 03:15:26;;;;;;;;;;;21.70;65.40;;;;;;5093580;28;19928;-83
2022/08/25 03:17:56;;;;;;;;;;;21.70;65.40;;;;;;5070852;28;19924;-81
2022/08/25 03:20:26;;;;;;;;;;;21.70;65.30;;;;;;5058099;28;19925;-79
2022/08/25 03:22:53;;;;;;;;;;;21.70;64.90;;;;;;5057247;28;19929;-79
2022/08/25 03:28:06;;;;;;;;;;;21.70;64.70;;;;;;5073702;28;19947;-79
2022/08/25 03:30:33;;;;;;;;;;;21.70;64.70;;;;;;5067786;28;19932;-87
2022/08/25 03:33:00;;;;;;;;;;;21.70;64.50;;;;;;5064200;28;20006;-79
2022/08/25 03:35:27;;;;;;;;;;;21.70;64.30;;;;;;5085894;28;19966;-81
2022/08/25 03:37:57;;;;;;;;;;;21.70;64.20;;;;;;5074268;28;19924;-86
2022/08/25 03:40:25;;;;;;;;;;;21.70;64.20;;;;;;5055324;28;19935;-86
2022/08/25 03:42:52;;;;;;;;;;;21.70;64.20;;;;;;5090665;28;20394;-83
2022/08/25 03:45:19;;;;;;;;;;;21.80;64.00;;;;;;5079196;28;19935;-82
2022/08/25 03:47:47;;;;;;;;;;;21.80;63.80;;;;;;5061855;28;19924;-79
2022/08/25 03:50:14;;;;;;;;;;;21.70;63.80;;;;;;5063998;28;19944;-85
2022/08/25 03:52:41;;;;;;;;;;;21.80;63.50;;;;;;5063633;28;19990;-82
2022/08/25 03:55:09;;;;;;;;;;;21.80;63.20;;;;;;5070291;28;20396;-79
2022/08/25 03:57:37;;;;;;;;;;;21.80;63.20;;;;;;5077195;28;19925;-83
2022/08/25 04:00:05;;;;;;;;;;;21.80;63.20;;;;;;5068304;28;20399;-83
2022/08/25 04:02:32;;;;;;;;;;;21.80;63.20;;;;;;5087368;28;19950;-88
2022/08/25 04:04:59;;;;;;;;;;;21.80;63.10;;;;;;5056964;28;19924;-85
2022/08/25 04:07:26;;;;;;;;;;;21.80;63.20;;;;;;5066144;28;19986;-79
2022/08/25 04:09:53;;;;;;;;;;;21.70;63.30;;;;;;5061677;28;19968;-79
2022/08/25 04:12:20;;;;;;;;;;;21.70;63.40;;;;;;5085259;28;19924;-88
2022/08/25 04:14:48;;;;;;;;;;;21.70;63.40;;;;;;5082484;28;19924;-84
2022/08/25 04:17:16;;;;;;;;;;;21.70;63.40;;;;;;5072580;28;19924;-87
2022/08/25 04:19:43;;;;;;;;;;;21.70;63.30;;;;;;5078284;28;19978;-87
2022/08/25 04:22:09;;;;;;;;;;;21.70;63.00;;;;;;5065628;28;19974;-79
2022/08/25 04:24:39;;;;;;;;;;;21.70;63.00;;;;;;5072890;28;20331;-83
2022/08/25 04:27:05;;;;;;;;;;;21.80;62.90;;;;;;5076949;28;19968;-79
2022/08/25 04:29:33;;;;;;;;;;;21.80;63.10;;;;;;5058532;28;19925;-88
2022/08/25 04:31:59;;;;;;;;;;;21.70;63.00;;;;;;5057543;28;19967;-79
2022/08/25 04:34:26;;;;;;;;;;;21.70;63.20;;;;;;5062033;28;20338;-83
2022/08/25 04:37:01;;;;;;;;;;;21.70;63.30;;;;;;5059540;28;19932;-87
2022/08/25 04:39:28;;;;;;;;;;;21.70;63.40;;;;;;5055649;28;20027;-82
2022/08/25 04:41:54;;;;;;;;;;;21.70;63.30;;;;;;5077983;28;20312;-86
2022/08/25 04:44:21;;;;;;;;;;;21.70;63.20;;;;;;5048285;28;19924;-88
2022/08/25 04:46:48;;;;;;;;;;;21.70;63.00;;;;;;5073989;28;19931;-83
2022/08/25 04:49:15;;;;;;;;;;;21.70;63.00;;;;;;5063832;28;19935;-80
2022/08/25 04:51:42;;;;;;;;;;;21.70;63.00;;;;;;5059363;28;19932;-82
2022/08/25 04:54:10;;;;;;;;;;;21.70;63.10;;;;;;5074995;28;20392;-79
2022/08/25 04:56:40;;;;;;;;;;;21.70;63.10;;;;;;5062324;28;19929;-79
2022/08/25 04:59:09;;;;;;;;;;;21.70;63.20;;;;;;5073001;28;19925;-87
2022/08/25 05:01:37;;;;;;;;;;;21.70;63.20;;;;;;5060107;28;19932;-79
2022/08/25 05:04:05;;;;;;;;;;;21.60;63.30;;;;;;5063416;28;20392;-81
2022/08/25 05:06:32;;;;;;;;;;;21.60;63.30;;;;;;5066287;28;19935;-79
2022/08/25 05:09:00;;;;;;;;;;;21.60;63.60;;;;;;5067492;28;20003;-80
2022/08/25 05:11:27;;;;;;;;;;;21.50;63.80;;;;;;5065511;28;19946;-85
2022/08/25 05:13:55;;;;;;;;;;;21.50;64.10;;;;;;5059324;28;19924;-82
2022/08/25 05:16:23;;;;;;;;;;;21.50;64.10;;;;;;5064533;28;20415;-87
2022/08/25 05:18:50;;;;;;;;;;;21.50;64.10;;;;;;5062010;28;19974;-86
2022/08/25 05:21:21;;;;;;;;;;;21.50;64.00;;;;;;5077919;28;19924;-82
2022/08/25 05:23:48;;;;;;;;;;;21.50;63.90;;;;;;5077764;28;19928;-84
2022/08/25 05:26:20;;;;;;;;;;;21.50;63.80;;;;;;5055811;28;19932;-79
2022/08/25 05:28:48;;;;;;;;;;;21.60;63.50;;;;;;5064026;28;19988;-84
2022/08/25 05:31:16;;;;;;;;;;;21.60;63.10;;;;;;5078825;28;19932;-83
2022/08/25 05:33:43;;;;;;;;;;;21.70;63.10;;;;;;5054178;28;19925;-85
2022/08/25 05:36:11;;;;;;;;;;;21.70;62.70;;;;;;5079221;28;20442;-84
2022/08/25 05:38:39;;;;;;;;;;;21.80;62.20;;;;;;5079592;28;19924;-79
2022/08/25 05:41:09;;;;;;;;;;;21.90;61.90;;;;;;5066303;28;19933;-88
2022/08/25 05:43:36;;;;;;;;;;;21.90;62.10;;;;;;5053701;28;19924;-79
2022/08/25 05:46:03;;;;;;;;;;;22.00;61.70;;;;;;5056118;28;20397;-87
2022/08/25 05:48:30;;;;;;;;;;;22.10;61.70;;;;;;5063722;28;19974;-79
2022/08/25 05:50:59;;;;;;;;;;;22.10;61.50;;;;;;5084307;28;19909;-85
2022/08/25 05:53:27;;;;;;;;;;;22.20;61.40;;;;;;5082969;28;19931;-87
2022/08/25 05:55:57;;;;;;;;;;;22.20;60.80;;;;;;5078935;28;20007;-79
2022/08/25 05:58:26;;;;;;;;;;;22.30;60.30;;;;;;5065445;28;19932;-83
2022/08/25 06:00:53;;;;;;;;;;;22.40;60.40;;;;;;5069405;28;20388;-85
2022/08/25 06:03:20;;;;;;;;;;;22.40;59.70;;;;;;5094216;28;19924;-79
2022/08/25 06:05:47;;;;;;;;;;;22.50;59.30;;;;;;5061059;28;20308;-86
2022/08/25 06:08:15;;;;;;;;;;;22.60;59.70;;;;;;5069345;28;19986;-84
2022/08/25 06:10:41;;;;;;;;;;;22.60;59.80;;;;;;5082220;28;19932;-83
2022/08/25 06:13:08;;;;;;;;;;;22.60;59.60;;;;;;5080228;28;19924;-85
2022/08/25 06:15:35;;;;;;;;;;;22.70;59.10;;;;;;5070044;28;19928;-88
2022/08/25 06:18:02;;;;;;;;;;;22.70;59.20;;;;;;5070632;28;19937;-83
2022/08/25 06:20:30;;;;;;;;;;;22.70;59.60;;;;;;5058774;28;19967;-83
2022/08/25 06:22:57;;;;;;;;;;;22.70;59.80;;;;;;5060956;28;19924;-85
2022/08/25 06:25:24;;;;;;;;;;;22.80;59.80;;;;;;5050620;28;19932;-83
2022/08/25 06:27:52;;;;;;;;;;;22.80;59.90;;;;;;5066237;28;19924;-84
2022/08/25 06:30:21;;;;;;;;;;;22.80;59.70;;;;;;5067530;28;19935;-88
2022/08/25 06:32:54;;;;;;;;;;;22.80;59.00;;;;;;5060000;28;19928;-88
2022/08/25 06:35:21;;;;;;;;;;;22.80;59.00;;;;;;5052402;28;19967;-79
2022/08/25 06:37:48;;;;;;;;;;;22.80;59.20;;;;;;5072243;28;20407;-79
2022/08/25 06:40:15;;;;;;;;;;;22.90;59.20;;;;;;5054561;28;19964;-83
2022/08/25 06:42:46;;;;;;;;;;;22.90;59.10;;;;;;5057218;28;20007;-83
2022/08/25 06:45:13;;;;;;;;;;;22.90;59.10;;;;;;5056986;28;19928;-87
2022/08/25 06:47:40;;;;;;;;;;;22.90;59.10;;;;;;5070916;28;19967;-79
2022/08/25 06:50:07;;;;;;;;;;;23.00;58.60;;;;;;5050448;28;19994;-82
2022/08/25 06:52:34;;;;;;;;;;;23.00;59.20;;;;;;5055588;28;19987;-84
2022/08/25 06:55:01;;;;;;;;;;;23.10;58.60;;;;;;5051810;28;20391;-83
2022/08/25 06:57:28;;;;;;;;;;;23.10;57.90;;;;;;5049175;28;20274;-82
2022/08/25 06:59:58;;;;;;;;;;;23.20;57.30;;;;;;5054650;28;19931;-83
2022/08/25 07:02:25;;;;;;;;;;;23.40;57.30;;;;;;5054896;28;20380;-79
2022/08/25 07:04:52;;;;;;;;;;;23.40;56.90;;;;;;5063688;28;19924;-79
2022/08/25 07:07:20;;;;;;;;;;;23.50;56.80;;;;;;5052405;28;19931;-83
2022/08/25 07:09:47;;;;;;;;;;;23.60;56.50;;;;;;5071278;28;19970;-88
2022/08/25 07:12:13;;;;;;;;;;;23.60;56.60;;;;;;5073503;28;19985;-87
2022/08/25 07:14:40;;;;;;;;;;;23.70;56.80;;;;;;5071043;28;20297;-83
2022/08/25 07:17:20;;;;;;;;;;;23.80;56.20;;;;;;5070686;28;19935;-79
2022/08/25 07:19:48;;;;;;;;;;;23.90;56.00;;;;;;5047025;28;20011;-82
2022/08/25 07:22:23;;;;;;;;;;;24.00;55.80;;;;;;5068199;28;20015;-82
2022/08/25 07:24:49;;;;;;;;;;;24.10;55.40;;;;;;5066727;28;19925;-88
2022/08/25 07:27:16;;;;;;;;;;;24.20;55.50;;;;;;5058521;28;20364;-87
2022/08/25 07:29:43;;;;;;;;;;;24.30;55.40;;;;;;5056358;28;19929;-77
2022/08/25 07:32:10;;;;;;;;;;;24.40;54.30;;;;;;5062776;28;19956;-78
2022/08/25 07:37:23;;;;;;;;;;;24.70;53.40;;;;;;5069603;28;19929;-81
2022/08/25 07:40:11;;;;;;;;;;;24.90;53.60;;;;;;5069261;28;19979;-86
2022/08/25 07:42:39;;;;;;;;;;;25.00;53.30;;;;;;5049029;28;19981;-82
2022/08/25 07:45:06;;;;;;;;;;;25.20;52.30;;;;;;5070466;28;19924;-83
2022/08/25 07:47:33;;;;;;;;;;;25.40;53.10;;;;;;5061682;28;20435;-82
2022/08/25 07:50:02;;;;;;;;;;;25.50;52.90;;;;;;5077711;28;20446;-78
2022/08/25 07:52:31;;;;;;;;;;;25.70;52.60;;;;;;5065034;28;19925;-88
2022/08/25 07:54:59;;;;;;;;;;;25.80;51.30;;;;;;5068240;28;19943;-81
2022/08/25 07:57:27;;;;;;;;;;;25.90;50.50;;;;;;5048054;28;19948;-88
2022/08/25 07:59:54;;;;;;;;;;;26.00;50.10;;;;;;5064611;28;19928;-85
2022/08/25 08:02:21;;;;;;;;;;;26.20;50.40;;;;;;5052293;28;19932;-88
2022/08/25 08:04:50;;;;;;;;;;;26.30;50.40;;;;;;5068640;28;19924;-83
2022/08/25 08:07:18;;;;;;;;;;;26.50;50.50;;;;;;5057603;28;19967;-83
2022/08/25 08:09:46;;;;;;;;;;;26.60;50.30;;;;;;5064403;28;19925;-78
2022/08/25 08:12:26;;;;;;;;;;;26.80;50.10;;;;;;5065102;28;19935;-84
2022/08/25 08:14:53;;;;;;;;;;;27.00;51.10;;;;;;5071611;28;20407;-86
2022/08/25 08:17:20;;;;;;;;;;;27.20;49.90;;;;;;5057225;28;19924;-81
2022/08/25 08:19:47;;;;;;;;;;;27.30;49.10;;;;;;5052322;28;19928;-82
2022/08/25 08:22:14;;;;;;;;;;;27.40;48.90;;;;;;5069399;28;19928;-81
2022/08/25 08:24:43;;;;;;;;;;;27.50;49.20;;;;;;5078024;28;19931;-77
2022/08/25 08:27:20;;;;;;;;;;;27.70;49.20;;;;;;5053554;28;19951;-86
2022/08/25 08:29:48;;;;;;;;;;;27.90;49.30;;;;;;5075162;28;19928;-86
2022/08/25 08:32:16;;;;;;;;;;;28.00;48.70;;;;;;5078358;28;19924;-81
2022/08/25 08:34:45;;;;;;;;;;;28.10;49.00;;;;;;5056341;28;20319;-82
2022/08/25 08:37:17;;;;;;;;;;;28.30;48.40;;;;;;5056392;28;19993;-83
2022/08/25 08:39:45;;;;;;;;;;;28.30;47.60;;;;;;5054040;28;19924;-81
2022/08/25 08:42:35;;;;;;;;;;;28.40;47.70;;;;;;5076177;28;19951;-83
2022/08/25 08:45:06;;;;;;;;;;;28.50;48.60;;;;;;5062843;28;19924;-81
2022/08/25 08:47:38;;;;;;;;;;;28.80;47.50;;;;;;5071590;28;19908;-81
2022/08/25 08:50:13;;;;;;;;;;;28.80;45.70;;;;;;5069146;28;20027;-81
2022/08/25 08:52:47;;;;;;;;;;;28.70;46.30;;;;;;5075535;28;19964;-78
2022/08/25 08:55:26;;;;;;;;;;;28.70;46.80;;;;;;5050259;28;19935;-87
2022/08/25 08:57:56;;;;;;;;;;;28.70;45.50;;;;;;5071935;28;19928;-84
2022/08/25 09:00:24;;;;;;;;;;;28.80;46.30;;;;;;5064154;28;19987;-78
2022/08/25 09:02:56;;;;;;;;;;;28.80;46.70;;;;;;5055832;28;19925;-78
2022/08/25 09:05:26;;;;;;;;;;;28.90;46.50;;;;;;5071820;28;19932;-84
2022/08/25 09:07:58;;;;;;;;;;;29.00;45.90;;;;;;5078537;28;19955;-79
2022/08/25 09:10:27;;;;;;;;;;;29.10;45.80;;;;;;5061216;28;19940;-84
2022/08/25 09:13:13;;;;;;;;;;;29.10;45.10;;;;;;5071614;28;19995;-89
2022/08/25 09:18:49;;;;;;;;;;;29.20;45.60;;;;;;5074253;28;20516;-82
2022/08/25 09:21:24;;;;;;;;;;;29.40;45.30;;;;;;5070771;28;19930;-82
2022/08/25 09:24:06;;;;;;;;;;;29.50;45.10;;;;;;5071778;28;19928;-83
2022/08/25 09:26:35;;;;;;;;;;;29.60;44.00;;;;;;5070153;28;19931;-89
2022/08/25 09:29:08;;;;;;;;;;;29.70;43.60;;;;;;5064592;28;19931;-89
2022/08/25 09:31:43;;;;;;;;;;;29.60;43.10;;;;;;5069427;28;20273;-85
2022/08/25 09:34:21;;;;;;;;;;;29.70;43.90;;;;;;5069309;28;20442;-82
2022/08/25 09:36:51;;;;;;;;;;;29.80;44.10;;;;;;5062366;28;19929;-82
2022/08/25 09:39:19;;;;;;;;;;;29.90;43.60;;;;;;5074539;28;19928;-83
2022/08/25 09:41:48;;;;;;;;;;;30.10;44.50;;;;;;5078709;28;20464;-84
2022/08/25 09:44:23;;;;;;;;;;;30.20;41.30;;;;;;5070915;28;19924;-84
2022/08/25 09:47:02;;;;;;;;;;;30.20;41.70;;;;;;5065450;28;19932;-84
2022/08/25 09:49:36;;;;;;;;;;;30.20;42.30;;;;;;5064672;28;19928;-84
2022/08/25 09:52:21;;;;;;;;;;;30.20;42.00;;;;;;5056428;28;19929;-84
2022/08/25 09:54:52;;;;;;;;;;;30.20;42.00;;;;;;5054101;28;20390;-80
2022/08/25 09:57:35;;;;;;;;;;;30.40;42.80;;;;;;5072488;28;19928;-87
2022/08/25 10:00:28;;;;;;;;;;;30.50;42.60;;;;;;5057360;28;20454;-83
2022/08/25 10:03:08;;;;;;;;;;;30.70;42.80;;;;;;5079060;28;19925;-84
2022/08/25 10:05:44;;;;;;;;;;;30.80;42.60;;;;;;5067877;28;20343;-83
2022/08/25 10:08:21;;;;;;;;;;;30.90;42.00;;;;;;5071562;28;19924;-80
2022/08/25 10:10:56;;;;;;;;;;;31.00;41.00;;;;;;5062163;28;19964;-82
2022/08/25 10:13:32;;;;;;;;;;;31.20;40.80;;;;;;5047970;28;19962;-82
2022/08/25 10:16:04;;;;;;;;;;;31.10;42.30;;;;;;5059278;28;19989;-83
2022/08/25 10:19:03;;;;;;;;;;;31.10;42.60;;;;;;5068809;28;19924;-83
2022/08/25 10:21:30;;;;;;;;;;;31.20;40.60;;;;;;5052204;28;20400;-80
2022/08/25 10:23:59;;;;;;;;;;;31.20;40.80;;;;;;5058279;28;20381;-81
2022/08/25 10:26:26;;;;;;;;;;;31.30;40.70;;;;;;5071379;28;19924;-81
2022/08/25 10:29:01;;;;;;;;;;;31.20;39.50;;;;;;5062032;28;19925;-84
2022/08/25 10:31:36;;;;;;;;;;;31.30;40.50;;;;;;5058742;28;19928;-83
2022/08/25 10:34:14;;;;;;;;;;;31.30;39.30;;;;;;5067469;28;19973;-84
2022/08/25 10:36:45;;;;;;;;;;;31.20;39.80;;;;;;5062862;28;19962;-84
2022/08/25 10:39:20;;;;;;;;;;;31.30;39.40;;;;;;5073582;28;19929;-81
2022/08/25 10:42:10;;;;;;;;;;;31.30;38.90;;;;;;5058244;28;20027;-84
2022/08/25 10:47:48;;;;;;;;;;;31.50;38.60;;;;;;5082439;28;20291;-82
2022/08/25 10:50:22;;;;;;;;;;;31.60;39.20;;;;;;5039734;28;20364;-82
2022/08/25 10:52:56;;;;;;;;;;;31.60;38.00;;;;;;5082474;28;19974;-80
2022/08/25 10:55:46;;;;;;;;;;;31.50;38.50;;;;;;5065749;28;19967;-87
2022/08/25 10:58:18;;;;;;;;;;;31.50;39.20;;;;;;5068500;28;19925;-81
2022/08/25 11:01:03;;;;;;;;;;;31.50;37.90;;;;;;5055033;28;19966;-81
2022/08/25 11:03:37;;;;;;;;;;;31.40;39.00;;;;;;5051732;28;19924;-81
2022/08/25 11:06:11;;;;;;;;;;;31.40;37.80;;;;;;5071187;28;19979;-83
2022/08/25 11:08:41;;;;;;;;;;;31.40;38.70;;;;;;5052318;28;19925;-81
2022/08/25 11:11:23;;;;;;;;;;;31.50;38.80;;;;;;5060104;28;20295;-83
2022/08/25 11:14:01;;;;;;;;;;;31.80;38.60;;;;;;5064558;28;20037;-83
2022/08/25 11:16:46;;;;;;;;;;;31.90;38.10;;;;;;5051533;28;19928;-83
2022/08/25 11:19:37;;;;;;;;;;;32.10;37.90;;;;;;5072583;28;19971;-83
2022/08/25 11:22:10;;;;;;;;;;;32.40;37.70;;;;;;5044805;28;19928;-82
2022/08/25 11:24:38;;;;;;;;;;;32.50;36.80;;;;;;5055868;28;19931;-83
2022/08/25 11:27:09;;;;;;;;;;;32.70;36.60;;;;;;5064655;28;19928;-82
2022/08/25 11:29:40;;;;;;;;;;;32.70;35.70;;;;;;5061474;28;20060;-82
2022/08/25 11:32:07;;;;;;;;;;;32.70;36.50;;;;;;5073448;28;19925;-85
2022/08/25 11:34:36;;;;;;;;;;;32.80;36.20;;;;;;5051685;28;20015;-85
2022/08/25 11:37:38;;;;;;;;;;;32.90;36.70;;;;;;5059906;28;20401;-84
2022/08/25 11:40:19;;;;;;;;;;;33.00;35.50;;;;;;5036233;28;19932;-84
2022/08/25 11:42:56;;;;;;;;;;;33.30;35.60;;;;;;5069487;28;19931;-82
2022/08/25 11:45:28;;;;;;;;;;;33.40;34.80;;;;;;5054797;28;19986;-83
2022/08/25 11:47:54;;;;;;;;;;;33.30;35.80;;;;;;5053903;28;19960;-83
2022/08/25 11:50:27;;;;;;;;;;;33.40;35.30;;;;;;5051801;28;20396;-83
2022/08/25 11:52:58;;;;;;;;;;;33.40;35.30;;;;;;5069283;28;20404;-84
2022/08/25 11:55:35;;;;;;;;;;;33.40;35.30;;;;;;5055379;28;19929;-83
2022/08/25 11:58:31;;;;;;;;;;;33.30;35.20;;;;;;5065031;28;19962;-83
2022/08/25 12:00:59;;;;;;;;;;;33.40;34.10;;;;;;5056390;28;19956;-82
2022/08/25 12:03:44;;;;;;;;;;;33.40;34.50;;;;;;5062985;28;19958;-82
2022/08/25 12:06:14;;;;;;;;;;;33.30;34.30;;;;;;5049670;28;19925;-80
2022/08/25 12:09:01;;;;;;;;;;;33.40;34.40;;;;;;5065752;28;19932;-80
2022/08/25 12:11:41;;;;;;;;;;;33.40;34.10;;;;;;5056436;28;19924;-83
2022/08/25 12:14:23;;;;;;;;;;;33.40;34.40;;;;;;5075747;28;19974;-82
2022/08/25 12:16:53;;;;;;;;;;;33.50;34.00;;;;;;5066821;28;19946;-83
2022/08/25 12:19:25;;;;;;;;;;;33.70;34.20;;;;;;5075616;28;19924;-81
2022/08/25 12:22:00;;;;;;;;;;;33.80;33.40;;;;;;5075836;28;20398;-82
2022/08/25 12:24:41;;;;;;;;;;;33.90;33.20;;;;;;5061161;28;20031;-82
2022/08/25 12:27:23;;;;;;;;;;;34.00;32.50;;;;;;5065148;28;19937;-83
2022/08/25 12:30:24;;;;;;;;;;;33.90;32.60;;;;;;5051526;28;19975;-82
2022/08/25 12:33:09;;;;;;;;;;;34.00;33.40;;;;;;5022224;28;19925;-78
2022/08/25 12:35:40;;;;;;;;;;;34.20;32.20;;;;;;5052425;28;19959;-83
2022/08/25 12:38:07;;;;;;;;;;;34.20;32.20;;;;;;5058236;28;19925;-82
2022/08/25 12:40:36;;;;;;;;;;;34.40;31.80;;;;;;5042953;28;19932;-82
2022/08/25 12:43:09;;;;;;;;;;;34.50;32.20;;;;;;5057536;28;19977;-82
2022/08/25 12:45:37;;;;;;;;;;;34.60;31.40;;;;;;5063847;28;20351;-82
2022/08/25 12:48:23;;;;;;;;;;;34.70;31.40;;;;;;5068980;28;19924;-82
2022/08/25 12:50:57;;;;;;;;;;;34.70;31.30;;;;;;5068955;28;19931;-82
2022/08/25 12:53:36;;;;;;;;;;;34.80;32.20;;;;;;5071577;28;19932;-81
2022/08/25 12:56:08;;;;;;;;;;;35.10;30.60;;;;;;5070275;28;19928;-82
2022/08/25 12:58:59;;;;;;;;;;;35.30;31.40;;;;;;5065405;28;19925;-80
2022/08/25 13:01:52;;;;;;;;;;;35.30;30.60;;;;;;5071953;28;19924;-82
2022/08/25 13:04:37;;;;;;;;;;;35.30;30.00;;;;;;5071000;28;20019;-82
2022/08/25 13:07:16;;;;;;;;;;;35.50;31.00;;;;;;5066110;28;19933;-81
2022/08/25 13:10:09;;;;;;;;;;;35.70;30.70;;;;;;5065243;28;19967;-82
2022/08/25 13:12:59;;;;;;;;;;;35.80;29.80;;;;;;5049773;28;19925;-81
2022/08/25 13:15:38;;;;;;;;;;;35.90;30.00;;;;;;5038081;28;19925;-81
2022/08/25 13:18:13;;;;;;;;;;;35.90;29.90;;;;;;5059732;28;20377;-80
2022/08/25 13:20:42;;;;;;;;;;;35.90;29.50;;;;;;5061089;28;19933;-80
2022/08/25 13:23:09;;;;;;;;;;;35.80;29.20;;;;;;5052068;28;19986;-82
2022/08/25 13:25:45;;;;;;;;;;;35.70;29.20;;;;;;5065297;28;19962;-80
2022/08/25 13:28:23;;;;;;;;;;;35.70;29.80;;;;;;5065589;28;19939;-82
2022/08/25 13:30:55;;;;;;;;;;;35.70;29.40;;;;;;5048717;28;20343;-81
2022/08/25 13:33:23;;;;;;;;;;;35.60;29.40;;;;;;5043339;28;19925;-82
2022/08/25 13:38:41;;;;;;;;;;;35.50;30.20;;;;;;5044325;28;19925;-81
2022/08/25 13:41:15;;;;;;;;;;;35.60;29.80;;;;;;5053413;28;19925;-80
2022/08/25 13:43:43;;;;;;;;;;;35.70;29.60;;;;;;5055902;28;20308;-82
2022/08/25 13:46:11;;;;;;;;;;;35.80;29.10;;;;;;5054113;28;20016;-81
2022/08/25 13:48:41;;;;;;;;;;;35.80;29.00;;;;;;5047287;28;19983;-81
2022/08/25 13:51:23;;;;;;;;;;;35.80;29.70;;;;;;5043656;28;19950;-82
2022/08/25 13:54:01;;;;;;;;;;;36.00;30.30;;;;;;5056273;28;19926;-81
2022/08/25 13:56:39;;;;;;;;;;;36.20;29.30;;;;;;5042477;28;19925;-83
2022/08/25 13:59:24;;;;;;;;;;;36.50;28.50;;;;;;5059562;28;19932;-81
2022/08/25 14:01:52;;;;;;;;;;;36.60;28.20;;;;;;5044635;28;19992;-81
2022/08/25 14:04:19;;;;;;;;;;;36.60;28.50;;;;;;5062606;28;20023;-81
2022/08/25 14:06:46;;;;;;;;;;;36.70;28.50;;;;;;5058279;28;19925;-80
2022/08/25 14:09:16;;;;;;;;;;;36.80;28.20;;;;;;5050273;28;20269;-80
2022/08/25 14:11:48;;;;;;;;;;;36.80;28.70;;;;;;5049978;28;19982;-81
2022/08/25 14:14:22;;;;;;;;;;;36.50;28.10;;;;;;5048165;28;19928;-80
2022/08/25 14:16:52;;;;;;;;;;;36.50;29.00;;;;;;5044946;28;19959;-80
2022/08/25 14:19:23;;;;;;;;;;;36.30;28.60;;;;;;5049888;28;20011;-81
2022/08/25 14:21:52;;;;;;;;;;;36.20;28.60;;;;;;5075214;28;19925;-81
2022/08/25 14:24:22;;;;;;;;;;;36.20;28.80;;;;;;5051362;28;20031;-81
2022/08/25 14:26:51;;;;;;;;;;;36.30;28.80;;;;;;5059684;28;19932;-82
2022/08/25 14:29:20;;;;;;;;;;;36.00;27.90;;;;;;5045213;28;19933;-80
2022/08/25 14:31:48;;;;;;;0.85;0.50;;;35.90;28.70;;;;;;5032757;28;19924;-82
2022/08/25 14:34:20;;;;;;;0.35;0.30;;;36.00;29.10;;;;;;5026726;28;20064;-82
2022/08/25 14:36:48;;;;;;;1.85;0.50;;;36.20;29.20;;;;;;5023248;28;20057;-81
2022/08/25 14:39:16;;;;;;;1.55;0.50;;;36.20;28.70;;;;;;5041323;28;20133;-81
2022/08/25 14:41:48;;;;;;;0.80;0.40;;;36.40;29.00;;;;;;5026567;28;20061;-81
2022/08/25 14:44:20;;;;;;;0.50;0.40;;;36.40;28.80;;;;;;5026271;28;20065;-82
2022/08/25 14:46:53;;;;;;;1.55;0.50;;;36.50;28.00;;;;;;5036698;28;20046;-80
2022/08/25 14:49:28;;;;;;;1.00;0.40;;;36.50;28.10;;;;;;5022606;28;20096;-82